CCA4126 ZULS-ZBAA
Flight info
| Callsign | CCA4126 |
|---|---|
| Flight time | 3h 14m |
| Altitude | 35100 |
| Route | DEP10R IGDAG DCT 31N094E/K0832S1130 3220N09530E 34N098E 3530N10000E DCT LED DCT DNC W211 ZWX W219 YHD W217 VIKON W72 DUDIL W69 GUVBA GUVBA4E |
| Aircraft | A319/M-SDE3FGHIRWY/LB1 |
Departure
| Time | 2026-05-05 10:06 |
|---|---|
| Airport | Lhasa Gonggar International Airport (ZULS) |
Arrival
| Time | 2026-05-05 13:21 |
|---|---|
| Airport | Beijing Capital International Airport (ZBAA) |
| Time | Latitude | Longitude | Altitude | Speed | Heading |
|---|---|---|---|---|---|
| 2026-05-05 09:51 | 29.29359 | 90.89504 | 11420 ft | 0 kts | 180° |
| 2026-05-05 09:59 | 29.29355 | 90.89504 | 11419 ft | 0 kts | 180° |
| 2026-05-05 09:59 | 29.29357 | 90.89504 | 11418 ft | 1 kts | 180° |
| 2026-05-05 10:00 | 29.29368 | 90.89504 | 11427 ft | 2 kts | 180° |
| 2026-05-05 10:00 | 29.29388 | 90.89505 | 11420 ft | 4 kts | 180° |
| 2026-05-05 10:00 | 29.29418 | 90.89505 | 11419 ft | 5 kts | 180° |
| 2026-05-05 10:00 | 29.29446 | 90.89507 | 11419 ft | 2 kts | 273° |
| 2026-05-05 10:01 | 29.29446 | 90.89514 | 11418 ft | 0 kts | 281° |
| 2026-05-05 10:01 | 29.29446 | 90.89512 | 11418 ft | 1 kts | 281° |
| 2026-05-05 10:01 | 29.29448 | 90.89477 | 11423 ft | 8 kts | 268° |
| 2026-05-05 10:02 | 29.29447 | 90.89392 | 11430 ft | 13 kts | 269° |
| 2026-05-05 10:02 | 29.29468 | 90.89323 | 11418 ft | 8 kts | 9° |
| 2026-05-05 10:02 | 29.29513 | 90.89302 | 11430 ft | 7 kts | 297° |
| 2026-05-05 10:02 | 29.29515 | 90.89235 | 11430 ft | 11 kts | 273° |
| 2026-05-05 10:03 | 29.29584 | 90.89196 | 11424 ft | 13 kts | 1° |
| 2026-05-05 10:03 | 29.29633 | 90.89195 | 11427 ft | 0 kts | 359° |
| 2026-05-05 10:03 | 29.29634 | 90.89195 | 11427 ft | 1 kts | 359° |
| 2026-05-05 10:03 | 29.29668 | 90.89195 | 11419 ft | 10 kts | 360° |
| 2026-05-05 10:04 | 29.29765 | 90.89214 | 11427 ft | 17 kts | 48° |
| 2026-05-05 10:04 | 29.29779 | 90.89343 | 11429 ft | 16 kts | 89° |
| 2026-05-05 10:04 | 29.29779 | 90.89357 | 11429 ft | 0 kts | 89° |
| 2026-05-05 10:05 | 29.29781 | 90.89528 | 11431 ft | 54 kts | 89° |
| 2026-05-05 10:05 | 29.29792 | 90.90232 | 11429 ft | 119 kts | 89° |
| 2026-05-05 10:05 | 29.29810 | 90.91381 | 11427 ft | 172 kts | 89° |
| 2026-05-05 10:06 | 29.29833 | 90.92933 | 11418 ft | 215 kts | 88° |
| 2026-05-05 10:06 | 29.29862 | 90.94641 | 12008 ft | 215 kts | 92° |
| 2026-05-05 10:06 | 29.29886 | 90.96367 | 12784 ft | 219 kts | 91° |
| 2026-05-05 10:06 | 29.29911 | 90.98148 | 13011 ft | 229 kts | 90° |
| 2026-05-05 10:07 | 29.29980 | 91.00022 | 13139 ft | 242 kts | 82° |
| 2026-05-05 10:07 | 29.30364 | 91.01942 | 13253 ft | 254 kts | 69° |
| 2026-05-05 10:07 | 29.31113 | 91.03827 | 13327 ft | 268 kts | 62° |
| 2026-05-05 10:07 | 29.31756 | 91.05895 | 13393 ft | 284 kts | 77° |
| 2026-05-05 10:08 | 29.31914 | 91.08210 | 13467 ft | 300 kts | 96° |
| 2026-05-05 10:08 | 29.31503 | 91.10580 | 13667 ft | 307 kts | 111° |
| 2026-05-05 10:08 | 29.30918 | 91.13028 | 13870 ft | 330 kts | 106° |
| 2026-05-05 10:08 | 29.30468 | 91.15673 | 14218 ft | 343 kts | 100° |
| 2026-05-05 10:09 | 29.30189 | 91.18418 | 14752 ft | 350 kts | 96° |
| 2026-05-05 10:09 | 29.29997 | 91.21207 | 15363 ft | 352 kts | 96° |
| 2026-05-05 10:09 | 29.29794 | 91.24002 | 16040 ft | 353 kts | 96° |
| 2026-05-05 10:09 | 29.29586 | 91.26820 | 16597 ft | 358 kts | 96° |
| 2026-05-05 10:10 | 29.29376 | 91.29638 | 17181 ft | 361 kts | 96° |
| 2026-05-05 10:10 | 29.29162 | 91.32514 | 17834 ft | 363 kts | 96° |
| 2026-05-05 10:10 | 29.28945 | 91.35411 | 18377 ft | 366 kts | 97° |
| 2026-05-05 10:10 | 29.28726 | 91.38336 | 18915 ft | 369 kts | 96° |
| 2026-05-05 10:11 | 29.28509 | 91.41266 | 19489 ft | 370 kts | 96° |
| 2026-05-05 10:11 | 29.28290 | 91.44224 | 20003 ft | 374 kts | 97° |
| 2026-05-05 10:11 | 29.28068 | 91.47204 | 20511 ft | 377 kts | 96° |
| 2026-05-05 10:11 | 29.27843 | 91.50200 | 21078 ft | 379 kts | 96° |
| 2026-05-05 10:12 | 29.27612 | 91.53224 | 21569 ft | 382 kts | 97° |
| 2026-05-05 10:12 | 29.27362 | 91.56268 | 22122 ft | 384 kts | 97° |
| 2026-05-05 10:12 | 29.27098 | 91.59321 | 22689 ft | 386 kts | 97° |
| 2026-05-05 10:12 | 29.26828 | 91.62391 | 23179 ft | 390 kts | 97° |
| 2026-05-05 10:13 | 29.26557 | 91.65451 | 23628 ft | 392 kts | 97° |
| 2026-05-05 10:13 | 29.26281 | 91.68563 | 24113 ft | 394 kts | 97° |
| 2026-05-05 10:13 | 29.26007 | 91.71700 | 24534 ft | 398 kts | 97° |
| 2026-05-05 10:13 | 29.25734 | 91.74859 | 24973 ft | 400 kts | 97° |
| 2026-05-05 10:14 | 29.25513 | 91.78050 | 25357 ft | 407 kts | 91° |
| 2026-05-05 10:14 | 29.25743 | 91.81327 | 25474 ft | 421 kts | 80° |
| 2026-05-05 10:14 | 29.26510 | 91.84606 | 25610 ft | 433 kts | 69° |
| 2026-05-05 10:14 | 29.27792 | 91.87770 | 25730 ft | 443 kts | 58° |
| 2026-05-05 10:15 | 29.29581 | 91.90685 | 25864 ft | 452 kts | 47° |
| 2026-05-05 10:15 | 29.31848 | 91.93198 | 26139 ft | 454 kts | 36° |
| 2026-05-05 10:15 | 29.34456 | 91.95229 | 26484 ft | 455 kts | 29° |
| 2026-05-05 10:15 | 29.37157 | 91.97173 | 26871 ft | 458 kts | 29° |
| 2026-05-05 10:16 | 29.39864 | 91.99110 | 27279 ft | 461 kts | 29° |
| 2026-05-05 10:16 | 29.42592 | 92.01060 | 27667 ft | 463 kts | 29° |
| 2026-05-05 10:16 | 29.45338 | 92.03022 | 28028 ft | 467 kts | 29° |
| 2026-05-05 10:16 | 29.48097 | 92.04996 | 28430 ft | 469 kts | 29° |
| 2026-05-05 10:17 | 29.50873 | 92.06986 | 28786 ft | 472 kts | 29° |
| 2026-05-05 10:17 | 29.53626 | 92.08964 | 29136 ft | 475 kts | 28° |
| 2026-05-05 10:17 | 29.56434 | 92.10981 | 29461 ft | 478 kts | 28° |
| 2026-05-05 10:17 | 29.59263 | 92.13015 | 29811 ft | 481 kts | 28° |
| 2026-05-05 10:18 | 29.62106 | 92.15059 | 30137 ft | 483 kts | 28° |
| 2026-05-05 10:18 | 29.64968 | 92.17122 | 30415 ft | 486 kts | 28° |
| 2026-05-05 10:18 | 29.67837 | 92.19190 | 30686 ft | 488 kts | 28° |
| 2026-05-05 10:18 | 29.70720 | 92.21266 | 30969 ft | 490 kts | 28° |
| 2026-05-05 10:19 | 29.73612 | 92.23351 | 31271 ft | 491 kts | 29° |
| 2026-05-05 10:19 | 29.76499 | 92.25439 | 31716 ft | 489 kts | 29° |
| 2026-05-05 10:19 | 29.79375 | 92.27519 | 32127 ft | 487 kts | 29° |
| 2026-05-05 10:19 | 29.81274 | 92.28893 | 32405 ft | 487 kts | 28° |
| 2026-05-05 10:20 | 29.84145 | 92.30971 | 32709 ft | 488 kts | 28° |
| 2026-05-05 10:20 | 29.87023 | 92.33053 | 33046 ft | 489 kts | 28° |
| 2026-05-05 10:20 | 29.89906 | 92.35137 | 33427 ft | 489 kts | 28° |
| 2026-05-05 10:20 | 29.92787 | 92.37220 | 33785 ft | 489 kts | 28° |
| 2026-05-05 10:21 | 29.96627 | 92.40025 | 34192 ft | 490 kts | 30° |
| 2026-05-05 10:21 | 29.98444 | 92.41585 | 34382 ft | 493 kts | 37° |
| 2026-05-05 10:21 | 30.00917 | 92.44352 | 34683 ft | 498 kts | 47° |
| 2026-05-05 10:21 | 30.02985 | 92.47578 | 34854 ft | 503 kts | 57° |
| 2026-05-05 10:22 | 30.04555 | 92.51170 | 34896 ft | 500 kts | 68° |
| 2026-05-05 10:22 | 30.05748 | 92.54931 | 34890 ft | 498 kts | 67° |
| 2026-05-05 10:22 | 30.09260 | 92.61759 | 34901 ft | 495 kts | 49° |
| 2026-05-05 10:23 | 30.13506 | 92.68037 | 34885 ft | 496 kts | 50° |
| 2026-05-05 10:23 | 30.17669 | 92.74298 | 34881 ft | 494 kts | 51° |
| 2026-05-05 10:24 | 30.21833 | 92.80588 | 34854 ft | 491 kts | 50° |
| 2026-05-05 10:24 | 30.25983 | 92.86854 | 34856 ft | 491 kts | 50° |
| 2026-05-05 10:25 | 30.30149 | 92.93124 | 34869 ft | 491 kts | 50° |
| 2026-05-05 10:25 | 30.34313 | 92.99406 | 34877 ft | 493 kts | 50° |
| 2026-05-05 10:26 | 30.38481 | 93.05712 | 34953 ft | 493 kts | 50° |
| 2026-05-05 10:26 | 30.42649 | 93.12046 | 34925 ft | 495 kts | 49° |
| 2026-05-05 10:27 | 30.46835 | 93.18398 | 34908 ft | 496 kts | 49° |
| 2026-05-05 10:27 | 30.51006 | 93.24732 | 34968 ft | 498 kts | 49° |
| 2026-05-05 10:28 | 30.55217 | 93.31128 | 34962 ft | 498 kts | 49° |
| 2026-05-05 10:28 | 30.59397 | 93.37516 | 34993 ft | 497 kts | 50° |
| 2026-05-05 10:29 | 30.63598 | 93.43954 | 35015 ft | 500 kts | 50° |
| 2026-05-05 10:29 | 30.67786 | 93.50368 | 35019 ft | 498 kts | 49° |
| 2026-05-05 10:30 | 30.71957 | 93.56743 | 35048 ft | 499 kts | 49° |
| 2026-05-05 10:30 | 30.76147 | 93.63172 | 35052 ft | 498 kts | 49° |
| 2026-05-05 10:31 | 30.80325 | 93.69599 | 35015 ft | 498 kts | 50° |
| 2026-05-05 10:31 | 30.84502 | 93.76038 | 35013 ft | 498 kts | 50° |
| 2026-05-05 10:32 | 30.88674 | 93.82477 | 35038 ft | 498 kts | 50° |
| 2026-05-05 10:32 | 30.92841 | 93.88913 | 35004 ft | 497 kts | 49° |
| 2026-05-05 10:33 | 30.97005 | 93.95352 | 35005 ft | 497 kts | 49° |
| 2026-05-05 10:33 | 31.01394 | 94.01542 | 35004 ft | 491 kts | 39° |
| 2026-05-05 10:34 | 31.06355 | 94.07020 | 35003 ft | 491 kts | 39° |
| 2026-05-05 10:34 | 31.11296 | 94.12454 | 35005 ft | 492 kts | 39° |
| 2026-05-05 10:35 | 31.16260 | 94.17945 | 34936 ft | 490 kts | 39° |
| 2026-05-05 10:35 | 31.21196 | 94.23431 | 34942 ft | 489 kts | 39° |
| 2026-05-05 10:36 | 31.26134 | 94.28909 | 34892 ft | 488 kts | 39° |
| 2026-05-05 10:36 | 31.31043 | 94.34362 | 34893 ft | 486 kts | 40° |
| 2026-05-05 10:37 | 31.35914 | 94.39788 | 34851 ft | 486 kts | 40° |
| 2026-05-05 10:37 | 31.40815 | 94.45244 | 34848 ft | 486 kts | 39° |
| 2026-05-05 10:38 | 31.45712 | 94.50716 | 34844 ft | 486 kts | 39° |
| 2026-05-05 10:38 | 31.50570 | 94.56160 | 34816 ft | 486 kts | 39° |
| 2026-05-05 10:39 | 31.55469 | 94.61638 | 34826 ft | 487 kts | 39° |
| 2026-05-05 10:39 | 31.60371 | 94.67131 | 34827 ft | 487 kts | 39° |
| 2026-05-05 10:40 | 31.65271 | 94.72633 | 34833 ft | 487 kts | 39° |
| 2026-05-05 10:40 | 31.70138 | 94.78116 | 34823 ft | 486 kts | 39° |
| 2026-05-05 10:41 | 31.75019 | 94.83619 | 34824 ft | 486 kts | 38° |
| 2026-05-05 10:41 | 31.79906 | 94.89124 | 34821 ft | 489 kts | 39° |
| 2026-05-05 10:42 | 31.87268 | 94.97454 | 34810 ft | 490 kts | 39° |
| 2026-05-05 10:43 | 31.92169 | 95.03011 | 34848 ft | 488 kts | 39° |
| 2026-05-05 10:43 | 31.97039 | 95.08547 | 34853 ft | 486 kts | 39° |
| 2026-05-05 10:44 | 32.01914 | 95.14080 | 34829 ft | 487 kts | 39° |
| 2026-05-05 10:44 | 32.06784 | 95.19621 | 34805 ft | 486 kts | 39° |
| 2026-05-05 10:45 | 32.11655 | 95.25170 | 34776 ft | 487 kts | 38° |
| 2026-05-05 10:45 | 32.16520 | 95.30728 | 34785 ft | 487 kts | 39° |
| 2026-05-05 10:46 | 32.21346 | 95.36249 | 34748 ft | 486 kts | 39° |
| 2026-05-05 10:46 | 32.26193 | 95.41806 | 34770 ft | 485 kts | 40° |
| 2026-05-05 10:47 | 32.31038 | 95.47362 | 34732 ft | 485 kts | 40° |
| 2026-05-05 10:47 | 32.35593 | 95.53262 | 34716 ft | 488 kts | 47° |
| 2026-05-05 10:48 | 32.39881 | 95.59495 | 34689 ft | 489 kts | 47° |
| 2026-05-05 10:48 | 32.44167 | 95.65741 | 34680 ft | 488 kts | 47° |
| 2026-05-05 10:49 | 32.48444 | 95.71977 | 34681 ft | 488 kts | 47° |
| 2026-05-05 10:49 | 32.52728 | 95.78232 | 34691 ft | 488 kts | 48° |
| 2026-05-05 10:50 | 32.57003 | 95.84477 | 34691 ft | 488 kts | 48° |
| 2026-05-05 10:50 | 32.61266 | 95.90729 | 34690 ft | 487 kts | 48° |
| 2026-05-05 10:51 | 32.65516 | 95.96969 | 34668 ft | 486 kts | 48° |
| 2026-05-05 10:51 | 32.69771 | 96.03213 | 34676 ft | 486 kts | 48° |
| 2026-05-05 10:52 | 32.74017 | 96.09463 | 34670 ft | 486 kts | 48° |
| 2026-05-05 10:52 | 32.78256 | 96.15723 | 34697 ft | 485 kts | 48° |
| 2026-05-05 10:53 | 32.82475 | 96.21958 | 34705 ft | 483 kts | 48° |
| 2026-05-05 10:53 | 32.86649 | 96.28136 | 34709 ft | 482 kts | 48° |
| 2026-05-05 10:54 | 32.90845 | 96.34356 | 34716 ft | 481 kts | 49° |
| 2026-05-05 10:54 | 32.95028 | 96.40564 | 34724 ft | 481 kts | 48° |
| 2026-05-05 10:55 | 32.99209 | 96.46777 | 34754 ft | 480 kts | 48° |
| 2026-05-05 10:55 | 33.03389 | 96.53011 | 34730 ft | 481 kts | 49° |
| 2026-05-05 10:56 | 33.07565 | 96.59252 | 34714 ft | 481 kts | 49° |
| 2026-05-05 10:56 | 33.11748 | 96.65495 | 34722 ft | 482 kts | 49° |
| 2026-05-05 10:57 | 33.15927 | 96.71767 | 34724 ft | 483 kts | 49° |
| 2026-05-05 10:57 | 33.20115 | 96.78033 | 34731 ft | 483 kts | 49° |
| 2026-05-05 10:58 | 33.24272 | 96.84271 | 34748 ft | 483 kts | 49° |
| 2026-05-05 10:58 | 33.28443 | 96.90556 | 34738 ft | 482 kts | 49° |
| 2026-05-05 10:59 | 33.32612 | 96.96846 | 34745 ft | 483 kts | 49° |
| 2026-05-05 10:59 | 33.36776 | 97.03143 | 34739 ft | 482 kts | 49° |
| 2026-05-05 11:00 | 33.40936 | 97.09433 | 34743 ft | 483 kts | 49° |
| 2026-05-05 11:00 | 33.45104 | 97.15745 | 34745 ft | 483 kts | 49° |
| 2026-05-05 11:01 | 33.49272 | 97.22067 | 34757 ft | 483 kts | 49° |
| 2026-05-05 11:01 | 33.53404 | 97.28349 | 34757 ft | 482 kts | 49° |
| 2026-05-05 11:02 | 33.57553 | 97.34675 | 34758 ft | 482 kts | 49° |
| 2026-05-05 11:02 | 33.61689 | 97.41000 | 34748 ft | 481 kts | 49° |
| 2026-05-05 11:03 | 33.65822 | 97.47320 | 34746 ft | 481 kts | 49° |
| 2026-05-05 11:03 | 33.69954 | 97.53648 | 34750 ft | 481 kts | 49° |
| 2026-05-05 11:04 | 33.74084 | 97.59980 | 34753 ft | 481 kts | 49° |
| 2026-05-05 11:04 | 33.78211 | 97.66316 | 34771 ft | 481 kts | 49° |
| 2026-05-05 11:05 | 33.82331 | 97.72662 | 34773 ft | 481 kts | 49° |
| 2026-05-05 11:05 | 33.86446 | 97.79004 | 34779 ft | 481 kts | 49° |
| 2026-05-05 11:06 | 33.90558 | 97.85354 | 34790 ft | 481 kts | 49° |
| 2026-05-05 11:06 | 33.94665 | 97.91718 | 34794 ft | 481 kts | 50° |
| 2026-05-05 11:07 | 33.98738 | 97.98042 | 34803 ft | 481 kts | 50° |
| 2026-05-05 11:07 | 34.03136 | 98.04076 | 34803 ft | 478 kts | 44° |
| 2026-05-05 11:08 | 34.07665 | 98.09944 | 34796 ft | 478 kts | 44° |
| 2026-05-05 11:08 | 34.12192 | 98.15822 | 34795 ft | 478 kts | 44° |
| 2026-05-05 11:09 | 34.16715 | 98.21708 | 34773 ft | 478 kts | 44° |
| 2026-05-05 11:09 | 34.20471 | 98.26608 | 34796 ft | 478 kts | 44° |
| 2026-05-05 11:10 | 34.24990 | 98.32514 | 34774 ft | 479 kts | 45° |
| 2026-05-05 11:10 | 34.29507 | 98.38426 | 34758 ft | 479 kts | 44° |
| 2026-05-05 11:11 | 34.34020 | 98.44346 | 34751 ft | 478 kts | 44° |
| 2026-05-05 11:11 | 34.38524 | 98.50274 | 34746 ft | 478 kts | 44° |
| 2026-05-05 11:12 | 34.43033 | 98.56198 | 34748 ft | 478 kts | 44° |
| 2026-05-05 11:12 | 34.47539 | 98.62129 | 34743 ft | 478 kts | 44° |
| 2026-05-05 11:13 | 34.52044 | 98.68073 | 34756 ft | 478 kts | 44° |
| 2026-05-05 11:13 | 34.56539 | 98.74020 | 34761 ft | 478 kts | 44° |
| 2026-05-05 11:14 | 34.61005 | 98.79933 | 34770 ft | 478 kts | 44° |
| 2026-05-05 11:14 | 34.65501 | 98.85889 | 34800 ft | 478 kts | 44° |
| 2026-05-05 11:15 | 34.69985 | 98.91858 | 34811 ft | 478 kts | 45° |
| 2026-05-05 11:15 | 34.74473 | 98.97837 | 34842 ft | 479 kts | 45° |
| 2026-05-05 11:16 | 34.78953 | 99.03823 | 34834 ft | 479 kts | 45° |
| 2026-05-05 11:16 | 34.83441 | 99.09819 | 34855 ft | 479 kts | 45° |
| 2026-05-05 11:17 | 34.87929 | 99.15815 | 34853 ft | 479 kts | 45° |
| 2026-05-05 11:17 | 34.92410 | 99.21815 | 34871 ft | 478 kts | 45° |
| 2026-05-05 11:18 | 34.96879 | 99.27828 | 34857 ft | 478 kts | 46° |
| 2026-05-05 11:18 | 35.01321 | 99.33804 | 34850 ft | 479 kts | 45° |
| 2026-05-05 11:19 | 35.05820 | 99.39868 | 34827 ft | 479 kts | 46° |
| 2026-05-05 11:19 | 35.10262 | 99.45868 | 34825 ft | 478 kts | 46° |
| 2026-05-05 11:20 | 35.14727 | 99.51914 | 34830 ft | 480 kts | 45° |
| 2026-05-05 11:20 | 35.19213 | 99.57982 | 34768 ft | 482 kts | 45° |
| 2026-05-05 11:21 | 35.23708 | 99.64080 | 34761 ft | 483 kts | 45° |
| 2026-05-05 11:21 | 35.28212 | 99.70202 | 34713 ft | 484 kts | 45° |
| 2026-05-05 11:22 | 35.32715 | 99.76345 | 34716 ft | 484 kts | 45° |
| 2026-05-05 11:22 | 35.37207 | 99.82492 | 34725 ft | 485 kts | 45° |
| 2026-05-05 11:23 | 35.41722 | 99.88656 | 34652 ft | 486 kts | 45° |
| 2026-05-05 11:23 | 35.46244 | 99.94845 | 34640 ft | 488 kts | 45° |
| 2026-05-05 11:24 | 35.50540 | 100.01245 | 34596 ft | 492 kts | 56° |
| 2026-05-05 11:24 | 35.53951 | 100.08536 | 34594 ft | 493 kts | 59° |
| 2026-05-05 11:25 | 35.57329 | 100.15877 | 34576 ft | 493 kts | 59° |
| 2026-05-05 11:25 | 35.60719 | 100.23226 | 34595 ft | 494 kts | 58° |
| 2026-05-05 11:26 | 35.64101 | 100.30576 | 34590 ft | 493 kts | 58° |
| 2026-05-05 11:26 | 35.67469 | 100.37919 | 34587 ft | 493 kts | 58° |
| 2026-05-05 11:27 | 35.70824 | 100.45275 | 34575 ft | 493 kts | 58° |
| 2026-05-05 11:27 | 35.74157 | 100.52575 | 34574 ft | 492 kts | 58° |
| 2026-05-05 11:28 | 35.77513 | 100.59929 | 34575 ft | 492 kts | 58° |
| 2026-05-05 11:28 | 35.80859 | 100.67287 | 34574 ft | 492 kts | 58° |
| 2026-05-05 11:29 | 35.84197 | 100.74653 | 34589 ft | 492 kts | 58° |
| 2026-05-05 11:29 | 35.87540 | 100.82025 | 34589 ft | 492 kts | 58° |
| 2026-05-05 11:30 | 35.90865 | 100.89400 | 34610 ft | 492 kts | 59° |
| 2026-05-05 11:30 | 35.94189 | 100.96786 | 34611 ft | 492 kts | 59° |
| 2026-05-05 11:31 | 35.97517 | 101.04183 | 34632 ft | 492 kts | 59° |
| 2026-05-05 11:31 | 36.00811 | 101.11525 | 34630 ft | 492 kts | 59° |
| 2026-05-05 11:32 | 36.04121 | 101.18917 | 34635 ft | 492 kts | 59° |
| 2026-05-05 11:32 | 36.07418 | 101.26311 | 34630 ft | 491 kts | 59° |
| 2026-05-05 11:33 | 36.10711 | 101.33709 | 34650 ft | 492 kts | 58° |
| 2026-05-05 11:33 | 36.14008 | 101.41127 | 34661 ft | 492 kts | 58° |
| 2026-05-05 11:34 | 36.17311 | 101.48556 | 34681 ft | 493 kts | 58° |
| 2026-05-05 11:34 | 36.20587 | 101.55952 | 34709 ft | 493 kts | 58° |
| 2026-05-05 11:35 | 36.23877 | 101.63414 | 34705 ft | 493 kts | 59° |
| 2026-05-05 11:35 | 36.27158 | 101.70873 | 34706 ft | 494 kts | 58° |
| 2026-05-05 11:36 | 36.30454 | 101.78357 | 34706 ft | 495 kts | 58° |
| 2026-05-05 11:36 | 36.33754 | 101.85858 | 34706 ft | 495 kts | 58° |
| 2026-05-05 11:37 | 36.37042 | 101.93381 | 34723 ft | 496 kts | 58° |
| 2026-05-05 11:37 | 36.40333 | 102.00917 | 34741 ft | 496 kts | 58° |
| 2026-05-05 11:38 | 36.43619 | 102.08453 | 34759 ft | 497 kts | 58° |
| 2026-05-05 11:38 | 36.46892 | 102.16003 | 34766 ft | 496 kts | 58° |
| 2026-05-05 11:39 | 36.50157 | 102.23551 | 34790 ft | 496 kts | 58° |
| 2026-05-05 11:39 | 36.53447 | 102.31145 | 35137 ft | 500 kts | 58° |
| 2026-05-05 11:39 | 36.55095 | 102.34954 | 35512 ft | 500 kts | 58° |
| 2026-05-05 11:40 | 36.56738 | 102.38760 | 35852 ft | 500 kts | 58° |
| 2026-05-05 11:40 | 36.58378 | 102.42566 | 36210 ft | 499 kts | 58° |
| 2026-05-05 11:40 | 36.59747 | 102.46541 | 36614 ft | 502 kts | 71° |
| 2026-05-05 11:40 | 36.60474 | 102.50798 | 36811 ft | 505 kts | 83° |
| 2026-05-05 11:41 | 36.60603 | 102.55169 | 36838 ft | 505 kts | 92° |
| 2026-05-05 11:41 | 36.60044 | 102.63873 | 36832 ft | 504 kts | 94° |
| 2026-05-05 11:42 | 36.59586 | 102.72539 | 36834 ft | 505 kts | 94° |
| 2026-05-05 11:42 | 36.59116 | 102.81269 | 36825 ft | 505 kts | 94° |
| 2026-05-05 11:43 | 36.58594 | 102.89977 | 36847 ft | 504 kts | 94° |
| 2026-05-05 11:43 | 36.58053 | 102.98667 | 36829 ft | 503 kts | 94° |
| 2026-05-05 11:44 | 36.57522 | 103.07353 | 36821 ft | 504 kts | 94° |
| 2026-05-05 11:44 | 36.56982 | 103.16059 | 36823 ft | 503 kts | 94° |
| 2026-05-05 11:45 | 36.56444 | 103.24692 | 36831 ft | 503 kts | 94° |
| 2026-05-05 11:45 | 36.55899 | 103.33359 | 36869 ft | 502 kts | 94° |
| 2026-05-05 11:46 | 36.55341 | 103.42015 | 36898 ft | 502 kts | 94° |
| 2026-05-05 11:46 | 36.54775 | 103.50690 | 36902 ft | 502 kts | 94° |
| 2026-05-05 11:47 | 36.55222 | 103.59290 | 36923 ft | 497 kts | 74° |
| 2026-05-05 11:47 | 36.57749 | 103.67164 | 36853 ft | 485 kts | 54° |
| 2026-05-05 11:48 | 36.63884 | 103.76953 | 36873 ft | 479 kts | 46° |
| 2026-05-05 11:48 | 36.68071 | 103.83409 | 36877 ft | 479 kts | 46° |
| 2026-05-05 11:49 | 36.72257 | 103.89881 | 36854 ft | 480 kts | 46° |
| 2026-05-05 11:49 | 36.76454 | 103.96363 | 36823 ft | 480 kts | 46° |
| 2026-05-05 11:50 | 36.80655 | 104.02850 | 36829 ft | 481 kts | 46° |
| 2026-05-05 11:50 | 36.84858 | 104.09356 | 36810 ft | 481 kts | 46° |
| 2026-05-05 11:51 | 36.89186 | 104.15706 | 36841 ft | 479 kts | 43° |
| 2026-05-05 11:51 | 36.93652 | 104.21830 | 36800 ft | 479 kts | 42° |
| 2026-05-05 11:52 | 36.98137 | 104.28000 | 36798 ft | 480 kts | 43° |
| 2026-05-05 11:52 | 37.02567 | 104.34255 | 36804 ft | 480 kts | 43° |
| 2026-05-05 11:53 | 37.06972 | 104.40534 | 36792 ft | 480 kts | 43° |
| 2026-05-05 11:53 | 37.11392 | 104.46819 | 36794 ft | 481 kts | 43° |
| 2026-05-05 11:54 | 37.15822 | 104.53108 | 36778 ft | 482 kts | 43° |
| 2026-05-05 11:54 | 37.20230 | 104.59376 | 36770 ft | 482 kts | 43° |
| 2026-05-05 11:55 | 37.24664 | 104.65707 | 36773 ft | 483 kts | 43° |
| 2026-05-05 11:55 | 37.29086 | 104.72062 | 36785 ft | 484 kts | 43° |
| 2026-05-05 11:56 | 37.33515 | 104.78439 | 36772 ft | 484 kts | 43° |
| 2026-05-05 11:56 | 37.37969 | 104.84789 | 36762 ft | 484 kts | 43° |
| 2026-05-05 11:57 | 37.42439 | 104.91137 | 36765 ft | 485 kts | 43° |
| 2026-05-05 11:57 | 37.46882 | 104.97468 | 36782 ft | 485 kts | 43° |
| 2026-05-05 11:58 | 37.51335 | 105.03864 | 36767 ft | 486 kts | 43° |
| 2026-05-05 11:58 | 37.55786 | 105.10280 | 36750 ft | 486 kts | 43° |
| 2026-05-05 11:59 | 37.59441 | 105.15690 | 36743 ft | 488 kts | 45° |
| 2026-05-05 11:59 | 37.63604 | 105.22491 | 36732 ft | 491 kts | 47° |
| 2026-05-05 12:00 | 37.68361 | 105.30583 | 36754 ft | 491 kts | 47° |
| 2026-05-05 12:00 | 37.72457 | 105.37396 | 36739 ft | 490 kts | 46° |
| 2026-05-05 12:01 | 37.76623 | 105.44229 | 36727 ft | 490 kts | 46° |
| 2026-05-05 12:01 | 37.80776 | 105.51063 | 36718 ft | 490 kts | 46° |
| 2026-05-05 12:02 | 37.84216 | 105.56755 | 36720 ft | 490 kts | 46° |
| 2026-05-05 12:02 | 37.88363 | 105.63607 | 36718 ft | 490 kts | 46° |
| 2026-05-05 12:03 | 37.92507 | 105.70450 | 36702 ft | 490 kts | 46° |
| 2026-05-05 12:03 | 37.96641 | 105.77299 | 36715 ft | 489 kts | 46° |
| 2026-05-05 12:04 | 38.00770 | 105.84158 | 36695 ft | 489 kts | 46° |
| 2026-05-05 12:04 | 38.04896 | 105.91012 | 36720 ft | 489 kts | 46° |
| 2026-05-05 12:05 | 38.09019 | 105.97878 | 36694 ft | 489 kts | 46° |
| 2026-05-05 12:05 | 38.13132 | 106.04757 | 36706 ft | 488 kts | 46° |
| 2026-05-05 12:06 | 38.17230 | 106.11626 | 36694 ft | 488 kts | 46° |
| 2026-05-05 12:06 | 38.21303 | 106.18468 | 36693 ft | 487 kts | 46° |
| 2026-05-05 12:07 | 38.25392 | 106.25341 | 36697 ft | 487 kts | 46° |
| 2026-05-05 12:07 | 38.29468 | 106.32214 | 36694 ft | 487 kts | 46° |
| 2026-05-05 12:08 | 38.33461 | 106.39183 | 36694 ft | 491 kts | 53° |
| 2026-05-05 12:08 | 38.36158 | 106.47265 | 36698 ft | 502 kts | 69° |
| 2026-05-05 12:09 | 38.38140 | 106.55792 | 36701 ft | 501 kts | 69° |
| 2026-05-05 12:09 | 38.40431 | 106.64127 | 36726 ft | 494 kts | 57° |
| 2026-05-05 12:10 | 38.44226 | 106.71230 | 36715 ft | 478 kts | 41° |
| 2026-05-05 12:10 | 38.48609 | 106.77550 | 36720 ft | 478 kts | 41° |
| 2026-05-05 12:11 | 38.53004 | 106.83938 | 36716 ft | 478 kts | 41° |
| 2026-05-05 12:11 | 38.57386 | 106.90330 | 36730 ft | 478 kts | 41° |
| 2026-05-05 12:12 | 38.61783 | 106.96738 | 36725 ft | 478 kts | 41° |
| 2026-05-05 12:12 | 38.66141 | 107.03089 | 36719 ft | 478 kts | 41° |
| 2026-05-05 12:13 | 38.70524 | 107.09501 | 36729 ft | 478 kts | 41° |
| 2026-05-05 12:13 | 38.74902 | 107.15919 | 36726 ft | 478 kts | 41° |
| 2026-05-05 12:14 | 38.79275 | 107.22352 | 36735 ft | 478 kts | 41° |
| 2026-05-05 12:14 | 38.83642 | 107.28791 | 36726 ft | 478 kts | 41° |
| 2026-05-05 12:15 | 38.88009 | 107.35237 | 36724 ft | 479 kts | 41° |
| 2026-05-05 12:15 | 38.92377 | 107.41702 | 36736 ft | 479 kts | 41° |
| 2026-05-05 12:16 | 38.96735 | 107.48168 | 36743 ft | 479 kts | 41° |
| 2026-05-05 12:16 | 39.01094 | 107.54631 | 36736 ft | 479 kts | 41° |
| 2026-05-05 12:17 | 39.05453 | 107.61103 | 36736 ft | 479 kts | 41° |
| 2026-05-05 12:17 | 39.09776 | 107.67553 | 36731 ft | 479 kts | 41° |
| 2026-05-05 12:18 | 39.14119 | 107.74065 | 36728 ft | 480 kts | 41° |
| 2026-05-05 12:18 | 39.18474 | 107.80590 | 36732 ft | 480 kts | 41° |
| 2026-05-05 12:19 | 39.22827 | 107.87120 | 36732 ft | 480 kts | 41° |
| 2026-05-05 12:19 | 39.27175 | 107.93662 | 36735 ft | 480 kts | 41° |
| 2026-05-05 12:20 | 39.31521 | 108.00211 | 36733 ft | 481 kts | 41° |
| 2026-05-05 12:20 | 39.35878 | 108.06787 | 36713 ft | 482 kts | 41° |
| 2026-05-05 12:21 | 39.40250 | 108.13395 | 36716 ft | 484 kts | 41° |
| 2026-05-05 12:21 | 39.44612 | 108.20022 | 36715 ft | 484 kts | 41° |
| 2026-05-05 12:22 | 39.48990 | 108.26671 | 36731 ft | 485 kts | 41° |
| 2026-05-05 12:22 | 39.53331 | 108.33298 | 36732 ft | 487 kts | 42° |
| 2026-05-05 12:23 | 39.57469 | 108.40309 | 36728 ft | 492 kts | 46° |
| 2026-05-05 12:23 | 39.61381 | 108.47626 | 36740 ft | 494 kts | 47° |
| 2026-05-05 12:24 | 39.65290 | 108.54948 | 36735 ft | 493 kts | 46° |
| 2026-05-05 12:24 | 39.69276 | 108.62196 | 36729 ft | 492 kts | 46° |
| 2026-05-05 12:25 | 39.73280 | 108.69404 | 36728 ft | 492 kts | 46° |
| 2026-05-05 12:25 | 39.77284 | 108.76644 | 36732 ft | 493 kts | 46° |
| 2026-05-05 12:26 | 39.81259 | 108.83906 | 36769 ft | 493 kts | 46° |
| 2026-05-05 12:26 | 39.85221 | 108.91194 | 36748 ft | 494 kts | 46° |
| 2026-05-05 12:27 | 39.89166 | 108.98444 | 36743 ft | 494 kts | 46° |
| 2026-05-05 12:27 | 39.93142 | 109.05749 | 36735 ft | 494 kts | 46° |
| 2026-05-05 12:28 | 39.97112 | 109.13063 | 36752 ft | 494 kts | 45° |
| 2026-05-05 12:28 | 40.01077 | 109.20381 | 36745 ft | 494 kts | 45° |
| 2026-05-05 12:29 | 40.05038 | 109.27720 | 36738 ft | 494 kts | 45° |
| 2026-05-05 12:29 | 40.08987 | 109.35039 | 36732 ft | 493 kts | 46° |
| 2026-05-05 12:30 | 40.12933 | 109.42384 | 36758 ft | 494 kts | 45° |
| 2026-05-05 12:30 | 40.16880 | 109.49738 | 36742 ft | 494 kts | 45° |
| 2026-05-05 12:31 | 40.20814 | 109.57096 | 36733 ft | 493 kts | 45° |
| 2026-05-05 12:31 | 40.24735 | 109.64448 | 36728 ft | 492 kts | 45° |
| 2026-05-05 12:32 | 40.28649 | 109.71808 | 36741 ft | 492 kts | 45° |
| 2026-05-05 12:32 | 40.32560 | 109.79167 | 36723 ft | 492 kts | 45° |
| 2026-05-05 12:33 | 40.36469 | 109.86534 | 36732 ft | 492 kts | 45° |
| 2026-05-05 12:33 | 40.40366 | 109.93900 | 36728 ft | 491 kts | 45° |
| 2026-05-05 12:34 | 40.44199 | 110.01346 | 36742 ft | 495 kts | 47° |
| 2026-05-05 12:34 | 40.47731 | 110.09067 | 36729 ft | 498 kts | 50° |
| 2026-05-05 12:35 | 40.51207 | 110.17009 | 36740 ft | 498 kts | 50° |
| 2026-05-05 12:35 | 40.54715 | 110.24831 | 36741 ft | 496 kts | 49° |
| 2026-05-05 12:36 | 40.58272 | 110.32591 | 36769 ft | 495 kts | 49° |
| 2026-05-05 12:36 | 40.61788 | 110.40393 | 36762 ft | 500 kts | 53° |
| 2026-05-05 12:37 | 40.63150 | 110.44592 | 36743 ft | 512 kts | 64° |
| 2026-05-05 12:37 | 40.64015 | 110.49198 | 36750 ft | 524 kts | 75° |
| 2026-05-05 12:37 | 40.64281 | 110.58900 | 36772 ft | 533 kts | 85° |
| 2026-05-05 12:38 | 40.64190 | 110.68662 | 36776 ft | 533 kts | 85° |
| 2026-05-05 12:38 | 40.64092 | 110.78425 | 36752 ft | 532 kts | 85° |
| 2026-05-05 12:39 | 40.63988 | 110.88170 | 36770 ft | 533 kts | 85° |
| 2026-05-05 12:39 | 40.63875 | 110.97910 | 36778 ft | 532 kts | 85° |
| 2026-05-05 12:40 | 40.63749 | 111.07653 | 36772 ft | 531 kts | 85° |
| 2026-05-05 12:40 | 40.63616 | 111.17371 | 36788 ft | 531 kts | 85° |
| 2026-05-05 12:41 | 40.63482 | 111.27028 | 36772 ft | 531 kts | 85° |
| 2026-05-05 12:41 | 40.63342 | 111.36769 | 36763 ft | 531 kts | 85° |
| 2026-05-05 12:42 | 40.63187 | 111.46527 | 36760 ft | 532 kts | 85° |
| 2026-05-05 12:42 | 40.63025 | 111.56260 | 36762 ft | 532 kts | 85° |
| 2026-05-05 12:43 | 40.62852 | 111.66000 | 36771 ft | 532 kts | 86° |
| 2026-05-05 12:43 | 40.62665 | 111.75741 | 36772 ft | 532 kts | 86° |
| 2026-05-05 12:44 | 40.62477 | 111.85477 | 36777 ft | 532 kts | 86° |
| 2026-05-05 12:44 | 40.62297 | 111.95210 | 36787 ft | 532 kts | 85° |
| 2026-05-05 12:45 | 40.62105 | 112.04890 | 36790 ft | 532 kts | 86° |
| 2026-05-05 12:45 | 40.61884 | 112.14612 | 36789 ft | 531 kts | 86° |
| 2026-05-05 12:46 | 40.61649 | 112.24331 | 36799 ft | 531 kts | 86° |
| 2026-05-05 12:46 | 40.61422 | 112.34055 | 36802 ft | 531 kts | 86° |
| 2026-05-05 12:47 | 40.61188 | 112.43764 | 36780 ft | 530 kts | 86° |
| 2026-05-05 12:47 | 40.60896 | 112.53482 | 36781 ft | 532 kts | 88° |
| 2026-05-05 12:48 | 40.60362 | 112.63192 | 36783 ft | 533 kts | 90° |
| 2026-05-05 12:48 | 40.59712 | 112.72907 | 36777 ft | 533 kts | 90° |
| 2026-05-05 12:49 | 40.58945 | 112.82587 | 36796 ft | 534 kts | 91° |
| 2026-05-05 12:49 | 40.58311 | 112.90717 | 36788 ft | 533 kts | 90° |
| 2026-05-05 12:50 | 40.57678 | 113.00428 | 36780 ft | 533 kts | 89° |
| 2026-05-05 12:50 | 40.57078 | 113.10145 | 36774 ft | 532 kts | 89° |
| 2026-05-05 12:51 | 40.56435 | 113.19844 | 36778 ft | 532 kts | 90° |
| 2026-05-05 12:51 | 40.55753 | 113.29539 | 36772 ft | 532 kts | 90° |
| 2026-05-05 12:52 | 40.55067 | 113.39162 | 36765 ft | 532 kts | 90° |
| 2026-05-05 12:52 | 40.54377 | 113.48899 | 36775 ft | 531 kts | 89° |
| 2026-05-05 12:53 | 40.53695 | 113.58560 | 36777 ft | 530 kts | 89° |
| 2026-05-05 12:53 | 40.53008 | 113.68189 | 36789 ft | 529 kts | 90° |
| 2026-05-05 12:54 | 40.52302 | 113.77910 | 34868 ft | 550 kts | 91° |
| 2026-05-05 12:54 | 40.51931 | 113.82888 | 34348 ft | 544 kts | 91° |
| 2026-05-05 12:54 | 40.51554 | 113.87829 | 33718 ft | 541 kts | 92° |
| 2026-05-05 12:55 | 40.51176 | 113.92720 | 32935 ft | 535 kts | 92° |
| 2026-05-05 12:55 | 40.50800 | 113.97548 | 32211 ft | 527 kts | 93° |
| 2026-05-05 12:55 | 40.50458 | 114.02315 | 31512 ft | 519 kts | 92° |
| 2026-05-05 12:55 | 40.50215 | 114.07006 | 30937 ft | 509 kts | 91° |
| 2026-05-05 12:56 | 40.50040 | 114.11605 | 30374 ft | 499 kts | 90° |
| 2026-05-05 12:56 | 40.49896 | 114.16131 | 29713 ft | 492 kts | 91° |
| 2026-05-05 12:56 | 40.49755 | 114.20576 | 29169 ft | 482 kts | 91° |
| 2026-05-05 12:56 | 40.49602 | 114.24917 | 28801 ft | 468 kts | 92° |
| 2026-05-05 12:57 | 40.49435 | 114.29107 | 28640 ft | 453 kts | 92° |
| 2026-05-05 12:57 | 40.49258 | 114.33230 | 28127 ft | 450 kts | 92° |
| 2026-05-05 12:57 | 40.49072 | 114.37316 | 27645 ft | 447 kts | 92° |
| 2026-05-05 12:57 | 40.48883 | 114.41377 | 27182 ft | 443 kts | 93° |
| 2026-05-05 12:58 | 40.48698 | 114.45402 | 26731 ft | 440 kts | 93° |
| 2026-05-05 12:58 | 40.48517 | 114.49401 | 26274 ft | 437 kts | 93° |
| 2026-05-05 12:58 | 40.48337 | 114.53372 | 25836 ft | 434 kts | 94° |
| 2026-05-05 12:58 | 40.48153 | 114.57308 | 25393 ft | 431 kts | 94° |
| 2026-05-05 12:59 | 40.47968 | 114.61231 | 24938 ft | 429 kts | 94° |
| 2026-05-05 12:59 | 40.47786 | 114.65132 | 24493 ft | 427 kts | 94° |
| 2026-05-05 12:59 | 40.47603 | 114.69018 | 24033 ft | 426 kts | 94° |
| 2026-05-05 13:00 | 40.47235 | 114.76755 | 23082 ft | 423 kts | 95° |
| 2026-05-05 13:00 | 40.47047 | 114.80610 | 22583 ft | 421 kts | 94° |
| 2026-05-05 13:01 | 40.46500 | 114.91999 | 21169 ft | 413 kts | 94° |
| 2026-05-05 13:01 | 40.46313 | 114.95748 | 20700 ft | 410 kts | 94° |
| 2026-05-05 13:01 | 40.46126 | 114.99478 | 20231 ft | 408 kts | 94° |
| 2026-05-05 13:01 | 40.45940 | 115.03192 | 19758 ft | 406 kts | 94° |
| 2026-05-05 13:02 | 40.45758 | 115.06832 | 19293 ft | 404 kts | 94° |
| 2026-05-05 13:02 | 40.45573 | 115.10511 | 18828 ft | 402 kts | 94° |
| 2026-05-05 13:02 | 40.45387 | 115.14166 | 18368 ft | 401 kts | 94° |
| 2026-05-05 13:02 | 40.45199 | 115.17807 | 17910 ft | 399 kts | 94° |
| 2026-05-05 13:03 | 40.45010 | 115.21429 | 17414 ft | 396 kts | 94° |
| 2026-05-05 13:03 | 40.44821 | 115.25022 | 16966 ft | 392 kts | 94° |
| 2026-05-05 13:03 | 40.44632 | 115.28585 | 16527 ft | 389 kts | 94° |
| 2026-05-05 13:03 | 40.44448 | 115.32116 | 16086 ft | 387 kts | 94° |
| 2026-05-05 13:04 | 40.44262 | 115.35631 | 15651 ft | 384 kts | 94° |
| 2026-05-05 13:04 | 40.44077 | 115.39123 | 15217 ft | 382 kts | 94° |
| 2026-05-05 13:04 | 40.43892 | 115.42588 | 14790 ft | 380 kts | 94° |
| 2026-05-05 13:04 | 40.43708 | 115.46042 | 14359 ft | 378 kts | 94° |
| 2026-05-05 13:05 | 40.43525 | 115.49481 | 13919 ft | 377 kts | 94° |
| 2026-05-05 13:05 | 40.43342 | 115.52910 | 13486 ft | 376 kts | 94° |
| 2026-05-05 13:05 | 40.43169 | 115.56274 | 13168 ft | 371 kts | 94° |
| 2026-05-05 13:05 | 40.43015 | 115.59614 | 12908 ft | 363 kts | 94° |
| 2026-05-05 13:06 | 40.42870 | 115.62891 | 12641 ft | 356 kts | 94° |
| 2026-05-05 13:06 | 40.42726 | 115.66114 | 12379 ft | 351 kts | 94° |
| 2026-05-05 13:06 | 40.42579 | 115.69292 | 12122 ft | 348 kts | 94° |
| 2026-05-05 13:06 | 40.42429 | 115.72449 | 11860 ft | 345 kts | 94° |
| 2026-05-05 13:07 | 40.42283 | 115.75585 | 11610 ft | 343 kts | 94° |
| 2026-05-05 13:07 | 40.42136 | 115.78703 | 11351 ft | 342 kts | 94° |
| 2026-05-05 13:07 | 40.41990 | 115.81812 | 11098 ft | 340 kts | 94° |
| 2026-05-05 13:07 | 40.41847 | 115.84901 | 10844 ft | 338 kts | 94° |
| 2026-05-05 13:08 | 40.41702 | 115.87973 | 10591 ft | 337 kts | 94° |
| 2026-05-05 13:08 | 40.41555 | 115.91039 | 10357 ft | 335 kts | 94° |
| 2026-05-05 13:08 | 40.41407 | 115.94082 | 10093 ft | 334 kts | 95° |
| 2026-05-05 13:08 | 40.41257 | 115.97106 | 9827 ft | 328 kts | 95° |
| 2026-05-05 13:09 | 40.41111 | 116.00037 | 9710 ft | 316 kts | 95° |
| 2026-05-05 13:09 | 40.40967 | 116.02894 | 9593 ft | 312 kts | 95° |
| 2026-05-05 13:09 | 40.40823 | 116.05725 | 9472 ft | 310 kts | 95° |
| 2026-05-05 13:09 | 40.40680 | 116.08553 | 9362 ft | 311 kts | 95° |
| 2026-05-05 13:10 | 40.40536 | 116.11377 | 9152 ft | 309 kts | 95° |
| 2026-05-05 13:10 | 40.40395 | 116.14143 | 8936 ft | 307 kts | 96° |
| 2026-05-05 13:10 | 40.40281 | 116.16943 | 8664 ft | 308 kts | 93° |
| 2026-05-05 13:10 | 40.40267 | 116.19746 | 8247 ft | 307 kts | 91° |
| 2026-05-05 13:11 | 40.40307 | 116.22535 | 7860 ft | 304 kts | 90° |
| 2026-05-05 13:11 | 40.40364 | 116.25302 | 7476 ft | 303 kts | 91° |
| 2026-05-05 13:11 | 40.40420 | 116.28055 | 7089 ft | 300 kts | 91° |
| 2026-05-05 13:11 | 40.40464 | 116.30774 | 6720 ft | 297 kts | 92° |
| 2026-05-05 13:12 | 40.40496 | 116.33484 | 6347 ft | 296 kts | 93° |
| 2026-05-05 13:12 | 40.40520 | 116.36169 | 6073 ft | 291 kts | 94° |
| 2026-05-05 13:12 | 40.40543 | 116.38775 | 5971 ft | 280 kts | 94° |
| 2026-05-05 13:12 | 40.40563 | 116.41280 | 5856 ft | 269 kts | 95° |
| 2026-05-05 13:13 | 40.40474 | 116.43674 | 5741 ft | 255 kts | 108° |
| 2026-05-05 13:13 | 40.39866 | 116.45764 | 5584 ft | 239 kts | 128° |
| 2026-05-05 13:13 | 40.38840 | 116.47392 | 5346 ft | 227 kts | 142° |
| 2026-05-05 13:13 | 40.37738 | 116.48845 | 5126 ft | 221 kts | 141° |
| 2026-05-05 13:14 | 40.36674 | 116.50263 | 4912 ft | 215 kts | 141° |
| 2026-05-05 13:14 | 40.35650 | 116.51635 | 4709 ft | 208 kts | 141° |
| 2026-05-05 13:14 | 40.34653 | 116.52970 | 4505 ft | 206 kts | 141° |
| 2026-05-05 13:14 | 40.33656 | 116.54306 | 4301 ft | 202 kts | 141° |
| 2026-05-05 13:15 | 40.32685 | 116.55606 | 4106 ft | 197 kts | 141° |
| 2026-05-05 13:15 | 40.31726 | 116.56858 | 3884 ft | 191 kts | 148° |
| 2026-05-05 13:15 | 40.30640 | 116.57709 | 3723 ft | 175 kts | 168° |
| 2026-05-05 13:15 | 40.29444 | 116.58046 | 3574 ft | 177 kts | 180° |
| 2026-05-05 13:16 | 40.28219 | 116.58239 | 3402 ft | 177 kts | 179° |
| 2026-05-05 13:16 | 40.27004 | 116.58432 | 3226 ft | 175 kts | 178° |
| 2026-05-05 13:16 | 40.25799 | 116.58623 | 3057 ft | 174 kts | 179° |
| 2026-05-05 13:16 | 40.24603 | 116.58813 | 2875 ft | 173 kts | 180° |
| 2026-05-05 13:17 | 40.23396 | 116.59004 | 2713 ft | 170 kts | 180° |
| 2026-05-05 13:17 | 40.22258 | 116.59185 | 2621 ft | 165 kts | 180° |
| 2026-05-05 13:17 | 40.21131 | 116.59363 | 2493 ft | 162 kts | 180° |
| 2026-05-05 13:17 | 40.20019 | 116.59539 | 2284 ft | 160 kts | 179° |
| 2026-05-05 13:18 | 40.18919 | 116.59712 | 2075 ft | 159 kts | 179° |
| 2026-05-05 13:18 | 40.17827 | 116.59884 | 1858 ft | 158 kts | 178° |
| 2026-05-05 13:18 | 40.16742 | 116.60056 | 1646 ft | 156 kts | 178° |
| 2026-05-05 13:18 | 40.15702 | 116.60221 | 1430 ft | 144 kts | 178° |
| 2026-05-05 13:19 | 40.14720 | 116.60376 | 1239 ft | 141 kts | 178° |
| 2026-05-05 13:19 | 40.13765 | 116.60527 | 1045 ft | 137 kts | 178° |
| 2026-05-05 13:19 | 40.12819 | 116.60675 | 864 ft | 136 kts | 176° |
| 2026-05-05 13:19 | 40.11886 | 116.60820 | 681 ft | 134 kts | 174° |
| 2026-05-05 13:20 | 40.10952 | 116.60972 | 492 ft | 135 kts | 174° |
| 2026-05-05 13:20 | 40.10032 | 116.61113 | 318 ft | 133 kts | 173° |
| 2026-05-05 13:20 | 40.09104 | 116.61260 | 156 ft | 134 kts | 174° |
| 2026-05-05 13:20 | 40.08249 | 116.61392 | 124 ft | 107 kts | 172° |
| 2026-05-05 13:21 | 40.07680 | 116.61487 | 122 ft | 59 kts | 173° |
| 2026-05-05 13:21 | 40.07316 | 116.61543 | 123 ft | 47 kts | 173° |
| 2026-05-05 13:21 | 40.07027 | 116.61583 | 123 ft | 38 kts | 181° |
| 2026-05-05 13:21 | 40.06804 | 116.61506 | 121 ft | 29 kts | 201° |
| 2026-05-05 13:22 | 40.06635 | 116.61423 | 121 ft | 23 kts | 191° |
| 2026-05-05 13:22 | 40.06512 | 116.61433 | 121 ft | 17 kts | 173° |
| 2026-05-05 13:22 | 40.06395 | 116.61446 | 121 ft | 12 kts | 198° |
| 2026-05-05 13:22 | 40.06370 | 116.61353 | 124 ft | 12 kts | 264° |
| 2026-05-05 13:23 | 40.06359 | 116.61235 | 124 ft | 14 kts | 263° |
| 2026-05-05 13:23 | 40.06348 | 116.61105 | 122 ft | 14 kts | 272° |
| 2026-05-05 13:23 | 40.06422 | 116.61058 | 122 ft | 9 kts | 348° |
| 2026-05-05 13:23 | 40.06433 | 116.60984 | 124 ft | 10 kts | 262° |
| 2026-05-05 13:24 | 40.06428 | 116.60923 | 123 ft | 1 kts | 262° |
| 2026-05-05 13:24 | 40.06427 | 116.60920 | 123 ft | 0 kts | 260° |